sensor_id;sensor_type;location;lat;lon;timestamp;pressure;altitude;pressure_sealevel;temperature;humidity
71976;BME280;60680;52.182;5.398;2022-10-31T00:01:10;102093.59;;;13.90;84.94
71976;BME280;60680;52.182;5.398;2022-10-31T00:03:37;102092.75;;;13.89;84.24
71976;BME280;60680;52.182;5.398;2022-10-31T00:06:04;102094.75;;;13.84;85.08
71976;BME280;60680;52.182;5.398;2022-10-31T00:08:30;102092.91;;;13.86;84.81
71976;BME280;60680;52.182;5.398;2022-10-31T00:10:57;102099.91;;;13.85;85.07
71976;BME280;60680;52.182;5.398;2022-10-31T00:13:23;102096.63;;;13.80;84.78
71976;BME280;60680;52.182;5.398;2022-10-31T00:15:50;102092.19;;;13.82;85.44
71976;BME280;60680;52.182;5.398;2022-10-31T00:18:16;102094.75;;;13.84;85.38
71976;BME280;60680;52.182;5.398;2022-10-31T00:20:43;102101.59;;;13.86;85.64
71976;BME280;60680;52.182;5.398;2022-10-31T00:23:11;102110.31;;;13.87;85.75
71976;BME280;60680;52.182;5.398;2022-10-31T00:25:38;102101.59;;;13.86;85.68
71976;BME280;60680;52.182;5.398;2022-10-31T00:28:07;102106.78;;;13.88;84.95
71976;BME280;60680;52.182;5.398;2022-10-31T00:30:35;102106.00;;;13.86;84.51
71976;BME280;60680;52.182;5.398;2022-10-31T00:33:03;102102.50;;;13.85;84.87
71976;BME280;60680;52.182;5.398;2022-10-31T00:35:30;102105.22;;;13.84;84.95
71976;BME280;60680;52.182;5.398;2022-10-31T00:37:56;102113.97;;;13.83;85.28
71976;BME280;60680;52.182;5.398;2022-10-31T00:40:23;102109.16;;;13.74;85.42
71976;BME280;60680;52.182;5.398;2022-10-31T00:42:50;102107.31;;;13.76;85.42
71976;BME280;60680;52.182;5.398;2022-10-31T00:45:16;102112.81;;;13.70;85.29
71976;BME280;60680;52.182;5.398;2022-10-31T00:47:43;102113.66;;;13.70;85.12
71976;BME280;60680;52.182;5.398;2022-10-31T00:50:09;102115.47;;;13.68;85.16
71976;BME280;60680;52.182;5.398;2022-10-31T00:52:36;102115.63;;;13.65;85.11
71976;BME280;60680;52.182;5.398;2022-10-31T00:55:02;102114.25;;;13.56;84.90
71976;BME280;60680;52.182;5.398;2022-10-31T00:57:29;102112.34;;;13.60;85.31
71976;BME280;60680;52.182;5.398;2022-10-31T00:59:55;102120.53;;;13.52;85.47
71976;BME280;60680;52.182;5.398;2022-10-31T01:02:22;102121.31;;;13.54;85.76
71976;BME280;60680;52.182;5.398;2022-10-31T01:04:48;102126.34;;;13.59;84.76
71976;BME280;60680;52.182;5.398;2022-10-31T01:07:15;102122.88;;;13.58;85.22
71976;BME280;60680;52.182;5.398;2022-10-31T01:09:42;102122.22;;;13.53;85.46
71976;BME280;60680;52.182;5.398;2022-10-31T01:12:08;102115.56;;;13.46;85.47
71976;BME280;60680;52.182;5.398;2022-10-31T01:14:35;102120.00;;;13.44;85.60
71976;BME280;60680;52.182;5.398;2022-10-31T01:17:01;102122.63;;;13.44;85.34
71976;BME280;60680;52.182;5.398;2022-10-31T01:19:28;102111.38;;;13.42;85.52
71976;BME280;60680;52.182;5.398;2022-10-31T01:21:55;102114.22;;;13.36;85.68
71976;BME280;60680;52.182;5.398;2022-10-31T01:24:22;102102.78;;;13.38;85.48
71976;BME280;60680;52.182;5.398;2022-10-31T01:26:48;102097.66;;;13.37;85.44
71976;BME280;60680;52.182;5.398;2022-10-31T01:29:15;102096.06;;;13.33;85.60
71976;BME280;60680;52.182;5.398;2022-10-31T01:31:41;102090.84;;;13.33;85.56
71976;BME280;60680;52.182;5.398;2022-10-31T01:34:13;102091.53;;;13.36;85.44
71976;BME280;60680;52.182;5.398;2022-10-31T01:36:40;102088.94;;;13.36;84.95
71976;BME280;60680;52.182;5.398;2022-10-31T01:39:12;102092.47;;;13.35;84.88
71976;BME280;60680;52.182;5.398;2022-10-31T01:41:45;102097.03;;;13.30;85.40
71976;BME280;60680;52.182;5.398;2022-10-31T01:46:57;102085.84;;;13.26;85.35
71976;BME280;60680;52.182;5.398;2022-10-31T01:52:03;102089.53;;;13.21;84.81
71976;BME280;60680;52.182;5.398;2022-10-31T01:54:37;102081.91;;;13.16;85.23
71976;BME280;60680;52.182;5.398;2022-10-31T01:57:08;102091.81;;;13.08;84.58
71976;BME280;60680;52.182;5.398;2022-10-31T01:59:40;102087.44;;;13.09;84.97
71976;BME280;60680;52.182;5.398;2022-10-31T02:02:09;102083.19;;;13.06;84.85
71976;BME280;60680;52.182;5.398;2022-10-31T02:04:40;102085.94;;;13.03;84.61
71976;BME280;60680;52.182;5.398;2022-10-31T02:07:12;102083.31;;;13.03;84.49
71976;BME280;60680;52.182;5.398;2022-10-31T02:09:42;102086.00;;;13.01;84.82
71976;BME280;60680;52.182;5.398;2022-10-31T02:12:10;102080.88;;;12.98;84.76
71976;BME280;60680;52.182;5.398;2022-10-31T02:14:38;102091.50;;;12.94;84.33
71976;BME280;60680;52.182;5.398;2022-10-31T02:17:06;102082.19;;;12.88;84.35
71976;BME280;60680;52.182;5.398;2022-10-31T02:19:57;102076.97;;;12.88;85.00
71976;BME280;60680;52.182;5.398;2022-10-31T02:23:05;102083.22;;;12.84;84.64
71976;BME280;60680;52.182;5.398;2022-10-31T02:34:08;102084.72;;;12.68;85.18
71976;BME280;60680;52.182;5.398;2022-10-31T02:42:33;102086.69;;;12.62;84.19
71976;BME280;60680;52.182;5.398;2022-10-31T02:45:12;102083.28;;;12.60;85.25
71976;BME280;60680;52.182;5.398;2022-10-31T02:47:41;102087.81;;;12.55;85.24
71976;BME280;60680;52.182;5.398;2022-10-31T02:50:14;102087.88;;;12.54;85.47
71976;BME280;60680;52.182;5.398;2022-10-31T02:52:42;102091.53;;;12.50;85.95
71976;BME280;60680;52.182;5.398;2022-10-31T02:58:04;102090.66;;;12.49;85.28
71976;BME280;60680;52.182;5.398;2022-10-31T03:00:41;102086.34;;;12.48;85.96
71976;BME280;60680;52.182;5.398;2022-10-31T03:09:13;102087.44;;;12.42;86.20
71976;BME280;60680;52.182;5.398;2022-10-31T03:11:56;102083.31;;;12.37;85.79
71976;BME280;60680;52.182;5.398;2022-10-31T03:14:30;102089.59;;;12.31;86.25
71976;BME280;60680;52.182;5.398;2022-10-31T03:17:05;102094.78;;;12.33;86.33
71976;BME280;60680;52.182;5.398;2022-10-31T03:19:43;102089.56;;;12.33;86.47
71976;BME280;60680;52.182;5.398;2022-10-31T03:22:21;102094.81;;;12.31;86.68
71976;BME280;60680;52.182;5.398;2022-10-31T03:24:50;102095.84;;;12.27;86.34
71976;BME280;60680;52.182;5.398;2022-10-31T03:27:22;102094.03;;;12.29;86.28
71976;BME280;60680;52.182;5.398;2022-10-31T03:29:56;102092.25;;;12.30;86.43
71976;BME280;60680;52.182;5.398;2022-10-31T03:32:31;102097.47;;;12.30;86.59
71976;BME280;60680;52.182;5.398;2022-10-31T03:35:01;102098.59;;;12.24;86.43
71976;BME280;60680;52.182;5.398;2022-10-31T03:37:31;102097.78;;;12.22;86.78
71976;BME280;60680;52.182;5.398;2022-10-31T03:40:00;102096.28;;;12.15;86.69
71976;BME280;60680;52.182;5.398;2022-10-31T03:42:30;102096.28;;;12.15;86.58
71976;BME280;60680;52.182;5.398;2022-10-31T03:44:58;102092.94;;;12.11;86.95
71976;BME280;60680;52.182;5.398;2022-10-31T03:47:28;102093.84;;;12.10;87.08
71976;BME280;60680;52.182;5.398;2022-10-31T03:49:55;102100.75;;;12.11;86.47
71976;BME280;60680;52.182;5.398;2022-10-31T03:52:36;102096.28;;;12.15;86.82
71976;BME280;60680;52.182;5.398;2022-10-31T03:55:17;102092.88;;;12.13;87.08
71976;BME280;60680;52.182;5.398;2022-10-31T03:57:51;102096.41;;;12.12;87.03
71976;BME280;60680;52.182;5.398;2022-10-31T04:00:20;102095.66;;;12.08;86.63
71976;BME280;60680;52.182;5.398;2022-10-31T04:03:09;102094.69;;;12.11;86.64
71976;BME280;60680;52.182;5.398;2022-10-31T04:05:37;102095.06;;;12.01;87.51
71976;BME280;60680;52.182;5.398;2022-10-31T04:08:09;102100.34;;;11.98;87.56
71976;BME280;60680;52.182;5.398;2022-10-31T04:10:38;102096.19;;;11.94;87.63
71976;BME280;60680;52.182;5.398;2022-10-31T04:13:13;102096.13;;;11.96;87.04
71976;BME280;60680;52.182;5.398;2022-10-31T04:15:42;102100.59;;;11.92;87.35
71976;BME280;60680;52.182;5.398;2022-10-31T04:18:09;102105.94;;;11.88;87.61
71976;BME280;60680;52.182;5.398;2022-10-31T04:20:38;102107.03;;;11.82;87.09
71976;BME280;60680;52.182;5.398;2022-10-31T04:23:16;102102.69;;;11.81;87.25
71976;BME280;60680;52.182;5.398;2022-10-31T04:25:44;102104.41;;;11.82;88.00
71976;BME280;60680;52.182;5.398;2022-10-31T04:28:11;102105.22;;;11.84;87.54
71976;BME280;60680;52.182;5.398;2022-10-31T04:30:37;102095.66;;;11.83;86.83
71976;BME280;60680;52.182;5.398;2022-10-31T04:33:04;102094.81;;;11.82;87.09
71976;BME280;60680;52.182;5.398;2022-10-31T04:35:30;102099.19;;;11.82;87.01
71976;BME280;60680;52.182;5.398;2022-10-31T04:37:57;102094.94;;;11.79;87.53
71976;BME280;60680;52.182;5.398;2022-10-31T04:40:23;102089.78;;;11.78;86.85
71976;BME280;60680;52.182;5.398;2022-10-31T04:42:50;102097.59;;;11.78;87.27
71976;BME280;60680;52.182;5.398;2022-10-31T04:45:17;102087.47;;;11.69;87.45
71976;BME280;60680;52.182;5.398;2022-10-31T04:47:46;102090.19;;;11.66;87.15
71976;BME280;60680;52.182;5.398;2022-10-31T04:50:13;102087.47;;;11.69;87.04
71976;BME280;60680;52.182;5.398;2022-10-31T04:52:41;102092.69;;;11.69;87.56
71976;BME280;60680;52.182;5.398;2022-10-31T04:55:09;102092.75;;;11.67;88.26
71976;BME280;60680;52.182;5.398;2022-10-31T04:57:43;102084.06;;;11.67;87.66
71976;BME280;60680;52.182;5.398;2022-10-31T05:00:14;102085.03;;;11.64;87.31
71976;BME280;60680;52.182;5.398;2022-10-31T05:02:46;102088.50;;;11.65;87.12
71976;BME280;60680;52.182;5.398;2022-10-31T05:05:14;102084.22;;;11.62;87.58
71976;BME280;60680;52.182;5.398;2022-10-31T05:07:42;102084.22;;;11.62;87.28
71976;BME280;60680;52.182;5.398;2022-10-31T05:10:11;102080.03;;;11.58;87.61
71976;BME280;60680;52.182;5.398;2022-10-31T05:12:38;102077.66;;;11.52;nan
71976;BME280;60680;52.182;5.398;2022-10-31T05:15:12;102080.31;;;11.50;87.59
71976;BME280;60680;52.182;5.398;2022-10-31T05:17:38;102074.38;;;11.45;87.92
71976;BME280;60680;52.182;5.398;2022-10-31T05:20:05;102081.31;;;11.46;87.54
71976;BME280;60680;52.182;5.398;2022-10-31T05:22:32;102078.88;;;11.41;87.35
71976;BME280;60680;52.182;5.398;2022-10-31T05:24:58;102079.59;;;11.45;87.85
71976;BME280;60680;52.182;5.398;2022-10-31T05:27:25;102074.50;;;11.42;87.88
71976;BME280;60680;52.182;5.398;2022-10-31T05:29:51;102071.97;;;11.39;87.54
71976;BME280;60680;52.182;5.398;2022-10-31T05:32:18;102080.84;;;11.35;88.06
71976;BME280;60680;52.182;5.398;2022-10-31T05:34:44;102070.47;;;11.33;87.98
71976;BME280;60680;52.182;5.398;2022-10-31T05:37:11;102070.47;;;11.33;88.06
71976;BME280;60680;52.182;5.398;2022-10-31T05:39:37;102071.41;;;11.31;87.91
71976;BME280;60680;52.182;5.398;2022-10-31T05:42:04;102062.81;;;11.29;87.68
71976;BME280;60680;52.182;5.398;2022-10-31T05:44:30;102068.06;;;11.27;87.96
71976;BME280;60680;52.182;5.398;2022-10-31T05:46:56;102064.69;;;11.23;87.79
71976;BME280;60680;52.182;5.398;2022-10-31T05:49:23;102064.69;;;11.23;87.41
71976;BME280;60680;52.182;5.398;2022-10-31T05:51:50;102063.81;;;11.25;88.18
71976;BME280;60680;52.182;5.398;2022-10-31T05:54:16;102062.00;;;11.27;88.11
71976;BME280;60680;52.182;5.398;2022-10-31T05:56:43;102061.09;;;11.28;87.56
71976;BME280;60680;52.182;5.398;2022-10-31T05:59:09;102058.53;;;11.26;88.41
71976;BME280;60680;52.182;5.398;2022-10-31T06:01:36;102059.41;;;11.27;88.00
71976;BME280;60680;52.182;5.398;2022-10-31T06:04:02;102055.91;;;11.26;87.88
71976;BME280;60680;52.182;5.398;2022-10-31T06:06:29;102060.25;;;11.27;88.33
71976;BME280;60680;52.182;5.398;2022-10-31T06:08:55;102058.53;;;11.26;88.40
71976;BME280;60680;52.182;5.398;2022-10-31T06:11:22;102046.44;;;11.23;88.48
71976;BME280;60680;52.182;5.398;2022-10-31T06:13:48;102050.94;;;11.20;88.64
71976;BME280;60680;52.182;5.398;2022-10-31T06:16:15;102050.97;;;11.18;88.93
71976;BME280;60680;52.182;5.398;2022-10-31T06:18:41;102047.56;;;11.16;88.48
71976;BME280;60680;52.182;5.398;2022-10-31T06:21:08;102051.06;;;11.15;88.54
71976;BME280;60680;52.182;5.398;2022-10-31T06:23:38;102047.66;;;11.13;89.45
71976;BME280;60680;52.182;5.398;2022-10-31T06:26:05;102049.47;;;11.11;88.98
71976;BME280;60680;52.182;5.398;2022-10-31T06:28:31;102054.78;;;11.08;89.74
71976;BME280;60680;52.182;5.398;2022-10-31T06:30:58;102053.88;;;11.09;89.73
71976;BME280;60680;52.182;5.398;2022-10-31T06:33:24;102067.84;;;11.07;89.04
71976;BME280;60680;52.182;5.398;2022-10-31T06:35:51;102065.22;;;11.08;89.30
71976;BME280;60680;52.182;5.398;2022-10-31T06:38:17;102063.44;;;11.09;89.14
71976;BME280;60680;52.182;5.398;2022-10-31T06:40:44;102069.50;;;11.09;89.52
71976;BME280;60680;52.182;5.398;2022-10-31T06:43:10;102066.97;;;11.08;89.28
71976;BME280;60680;52.182;5.398;2022-10-31T06:45:37;102071.38;;;11.06;89.63
71976;BME280;60680;52.182;5.398;2022-10-31T06:48:04;102073.06;;;11.07;89.83
71976;BME280;60680;52.182;5.398;2022-10-31T06:50:47;102067.97;;;11.04;89.96
71976;BME280;60680;52.182;5.398;2022-10-31T06:53:13;102070.63;;;11.02;89.77
71976;BME280;60680;52.182;5.398;2022-10-31T06:55:43;102072.41;;;11.00;90.41
71976;BME280;60680;52.182;5.398;2022-10-31T06:58:10;102072.44;;;10.98;90.24
71976;BME280;60680;52.182;5.398;2022-10-31T07:00:37;102076.84;;;10.96;90.27
71976;BME280;60680;52.182;5.398;2022-10-31T07:03:05;102078.72;;;10.93;90.20
71976;BME280;60680;52.182;5.398;2022-10-31T07:05:32;102078.78;;;10.91;90.14
71976;BME280;60680;52.182;5.398;2022-10-31T07:08:02;102077.00;;;10.92;89.84
71976;BME280;60680;52.182;5.398;2022-10-31T07:10:30;102076.22;;;10.90;89.96
71976;BME280;60680;52.182;5.398;2022-10-31T07:13:05;102080.41;;;10.94;90.21
71976;BME280;60680;52.182;5.398;2022-10-31T07:15:34;102078.72;;;10.93;90.16
71976;BME280;60680;52.182;5.398;2022-10-31T07:18:07;102075.22;;;10.94;89.85
71976;BME280;60680;52.182;5.398;2022-10-31T07:20:34;102081.38;;;10.91;90.03
71976;BME280;60680;52.182;5.398;2022-10-31T07:23:00;102070.13;;;10.91;90.36
71976;BME280;60680;52.182;5.398;2022-10-31T07:25:28;102072.59;;;10.94;90.48
71976;BME280;60680;52.182;5.398;2022-10-31T07:27:54;102071.81;;;10.92;90.74
71976;BME280;60680;52.182;5.398;2022-10-31T07:30:21;102071.72;;;10.95;90.53
71976;BME280;60680;52.182;5.398;2022-10-31T07:32:58;102071.75;;;10.93;90.70
71976;BME280;60680;52.182;5.398;2022-10-31T07:35:27;102078.66;;;10.94;90.47
71976;BME280;60680;52.182;5.398;2022-10-31T07:37:54;102082.03;;;10.98;90.35
71976;BME280;60680;52.182;5.398;2022-10-31T07:40:21;102089.00;;;10.97;90.55
71976;BME280;60680;52.182;5.398;2022-10-31T07:42:51;102092.41;;;10.99;90.36
71976;BME280;60680;52.182;5.398;2022-10-31T07:45:20;102093.97;;;11.05;91.06
71976;BME280;60680;52.182;5.398;2022-10-31T07:47:52;102090.34;;;11.09;90.57
71976;BME280;60680;52.182;5.398;2022-10-31T07:50:26;102090.25;;;11.12;90.21
71976;BME280;60680;52.182;5.398;2022-10-31T07:53:01;102088.47;;;11.14;90.12
71976;BME280;60680;52.182;5.398;2022-10-31T07:55:28;102091.06;;;11.14;90.98
71976;BME280;60680;52.182;5.398;2022-10-31T07:58:02;102091.81;;;11.18;90.67
71976;BME280;60680;52.182;5.398;2022-10-31T08:00:31;102096.28;;;11.14;90.52
71976;BME280;60680;52.182;5.398;2022-10-31T08:03:04;102090.03;;;11.20;90.73
71976;BME280;60680;52.182;5.398;2022-10-31T08:05:31;102094.19;;;11.24;90.52
71976;BME280;60680;52.182;5.398;2022-10-31T08:07:59;102097.53;;;11.29;90.88
71976;BME280;60680;52.182;5.398;2022-10-31T08:10:27;102106.13;;;11.31;91.18
71976;BME280;60680;52.182;5.398;2022-10-31T08:12:58;102101.69;;;11.35;90.51
71976;BME280;60680;52.182;5.398;2022-10-31T08:15:25;102096.25;;;11.41;90.85
71976;BME280;60680;52.182;5.398;2022-10-31T08:17:52;102102.06;;;11.49;91.11
71976;BME280;60680;52.182;5.398;2022-10-31T08:20:20;102101.75;;;11.58;91.47
71976;BME280;60680;52.182;5.398;2022-10-31T08:22:58;102100.66;;;11.64;91.09
71976;BME280;60680;52.182;5.398;2022-10-31T08:25:25;102099.66;;;11.68;91.11
71976;BME280;60680;52.182;5.398;2022-10-31T08:27:55;102106.38;;;11.75;91.35
71976;BME280;60680;52.182;5.398;2022-10-31T08:30:23;102098.19;;;11.86;90.96
71976;BME280;60680;52.182;5.398;2022-10-31T08:33:17;102099.47;;;11.99;91.31
71976;BME280;60680;52.182;5.398;2022-10-31T08:35:44;102089.00;;;12.01;90.74
71976;BME280;60680;52.182;5.398;2022-10-31T08:38:12;102089.78;;;12.03;90.99
71976;BME280;60680;52.182;5.398;2022-10-31T08:40:39;102086.16;;;12.07;91.06
71976;BME280;60680;52.182;5.398;2022-10-31T08:43:10;102089.47;;;12.11;91.57
71976;BME280;60680;52.182;5.398;2022-10-31T08:45:37;102085.97;;;12.12;92.15
71976;BME280;60680;52.182;5.398;2022-10-31T08:48:06;102085.97;;;12.12;92.07
71976;BME280;60680;52.182;5.398;2022-10-31T08:50:36;102091.28;;;12.09;92.06
71976;BME280;60680;52.182;5.398;2022-10-31T08:53:12;102087.03;;;12.06;91.77
71976;BME280;60680;52.182;5.398;2022-10-31T08:55:40;102089.78;;;12.03;92.18
71976;BME280;60680;52.182;5.398;2022-10-31T08:58:11;102079.28;;;12.04;91.86
71976;BME280;60680;52.182;5.398;2022-10-31T09:00:38;102077.53;;;12.05;92.58
71976;BME280;60680;52.182;5.398;2022-10-31T09:03:13;102070.41;;;12.09;92.38
71976;BME280;60680;52.182;5.398;2022-10-31T09:05:40;102071.22;;;12.11;92.12
71976;BME280;60680;52.182;5.398;2022-10-31T09:08:07;102067.31;;;12.22;92.49
71976;BME280;60680;52.182;5.398;2022-10-31T09:10:42;102059.81;;;12.37;92.17
71976;BME280;60680;52.182;5.398;2022-10-31T09:13:11;102066.44;;;12.46;92.27
71976;BME280;60680;52.182;5.398;2022-10-31T09:15:40;102061.88;;;12.51;92.15
71976;BME280;60680;52.182;5.398;2022-10-31T09:18:08;102060.63;;;12.61;92.59
71976;BME280;60680;52.182;5.398;2022-10-31T09:20:36;102055.63;;;12.77;92.35
71976;BME280;60680;52.182;5.398;2022-10-31T09:23:08;102047.69;;;12.80;92.00
71976;BME280;60680;52.182;5.398;2022-10-31T09:25:35;102045.13;;;12.78;91.91
71976;BME280;60680;52.182;5.398;2022-10-31T09:28:03;102040.50;;;12.85;92.00
71976;BME280;60680;52.182;5.398;2022-10-31T09:30:32;102038.41;;;12.93;92.56
71976;BME280;60680;52.182;5.398;2022-10-31T09:33:01;102030.13;;;13.04;92.35
71976;BME280;60680;52.182;5.398;2022-10-31T09:35:28;102031.25;;;13.19;92.91
71976;BME280;60680;52.182;5.398;2022-10-31T09:38:00;102029.16;;;13.29;91.74
71976;BME280;60680;52.182;5.398;2022-10-31T09:40:37;102035.81;;;13.36;91.09
71976;BME280;60680;52.182;5.398;2022-10-31T09:46:04;102021.63;;;13.41;91.42
71976;BME280;60680;52.182;5.398;2022-10-31T09:51:40;102027.63;;;13.43;91.96
71976;BME280;60680;52.182;5.398;2022-10-31T09:54:17;102030.16;;;13.45;91.94
71976;BME280;60680;52.182;5.398;2022-10-31T09:56:45;102025.81;;;13.45;92.61
71976;BME280;60680;52.182;5.398;2022-10-31T09:59:26;102027.44;;;13.48;92.59
71976;BME280;60680;52.182;5.398;2022-10-31T10:01:58;102029.19;;;13.48;92.79
71976;BME280;60680;52.182;5.398;2022-10-31T10:04:39;102017.59;;;13.53;92.85
71976;BME280;60680;52.182;5.398;2022-10-31T10:10:18;102008.44;;;13.63;92.85
71976;BME280;60680;52.182;5.398;2022-10-31T10:18:41;102010.84;;;13.68;93.34
71976;BME280;60680;52.182;5.398;2022-10-31T10:26:47;101995.72;;;13.75;93.09
71976;BME280;60680;52.182;5.398;2022-10-31T10:29:52;101993.88;;;13.77;93.94
71976;BME280;60680;52.182;5.398;2022-10-31T10:32:28;101980.63;;;13.81;93.60
71976;BME280;60680;52.182;5.398;2022-10-31T10:35:01;101978.78;;;13.83;94.09
71976;BME280;60680;52.182;5.398;2022-10-31T10:37:35;101983.03;;;13.86;93.60
71976;BME280;60680;52.182;5.398;2022-10-31T10:40:13;101980.19;;;13.91;93.32
71976;BME280;60680;52.182;5.398;2022-10-31T10:42:45;101980.13;;;13.92;93.17
71976;BME280;60680;52.182;5.398;2022-10-31T10:45:37;101984.28;;;13.96;93.79
71976;BME280;60680;52.182;5.398;2022-10-31T10:51:27;101967.44;;;14.02;93.78
71976;BME280;60680;52.182;5.398;2022-10-31T10:57:17;101946.69;;;14.16;93.27
71976;BME280;60680;52.182;5.398;2022-10-31T10:59:46;101930.78;;;14.21;93.01
71976;BME280;60680;52.182;5.398;2022-10-31T11:04:45;101917.78;;;14.37;93.14
71976;BME280;60680;52.182;5.398;2022-10-31T11:07:13;101910.38;;;14.45;92.49
71976;BME280;60680;52.182;5.398;2022-10-31T11:09:40;101900.47;;;14.52;91.78
71976;BME280;60680;52.182;5.398;2022-10-31T11:12:30;101891.47;;;14.57;91.20
71976;BME280;60680;52.182;5.398;2022-10-31T11:15:02;101891.09;;;14.65;90.89
71976;BME280;60680;52.182;5.398;2022-10-31T11:17:36;101878.53;;;14.72;90.45
71976;BME280;60680;52.182;5.398;2022-10-31T11:22:46;101868.97;;;14.88;89.63
71976;BME280;60680;52.182;5.398;2022-10-31T11:27:46;101870.69;;;15.05;88.96
71976;BME280;60680;52.182;5.398;2022-10-31T11:30:13;101871.38;;;15.08;88.01
71976;BME280;60680;52.182;5.398;2022-10-31T11:32:47;101883.38;;;15.13;88.17
71976;BME280;60680;52.182;5.398;2022-10-31T11:35:16;101873.75;;;15.13;88.14
71976;BME280;60680;52.182;5.398;2022-10-31T11:37:46;101883.31;;;15.14;88.01
71976;BME280;60680;52.182;5.398;2022-10-31T11:40:17;101870.97;;;15.16;88.20
71976;BME280;60680;52.182;5.398;2022-10-31T11:42:44;101862.78;;;15.22;87.50
71976;BME280;60680;52.182;5.398;2022-10-31T11:45:17;101856.44;;;15.26;87.37
71976;BME280;60680;52.182;5.398;2022-10-31T11:47:47;101867.69;;;15.28;86.22
71976;BME280;60680;52.182;5.398;2022-10-31T11:50:24;101864.13;;;15.29;86.77
71976;BME280;60680;52.182;5.398;2022-10-31T11:52:52;101858.88;;;15.29;86.20
71976;BME280;60680;52.182;5.398;2022-10-31T11:55:33;101856.19;;;15.31;86.13
71976;BME280;60680;52.182;5.398;2022-10-31T11:58:00;101847.56;;;15.29;85.63
71976;BME280;60680;52.182;5.398;2022-10-31T12:00:33;101828.34;;;15.28;85.82
71976;BME280;60680;52.182;5.398;2022-10-31T12:08:19;101795.44;;;15.23;86.80
71976;BME280;60680;52.182;5.398;2022-10-31T12:16:43;101782.78;;;15.15;86.61
71976;BME280;60680;52.182;5.398;2022-10-31T12:19:21;101783.09;;;15.09;86.53
71976;BME280;60680;52.182;5.398;2022-10-31T12:27:46;101765.06;;;15.03;86.80
71976;BME280;60680;52.182;5.398;2022-10-31T12:30:19;101761.50;;;15.04;87.49
71976;BME280;60680;52.182;5.398;2022-10-31T12:43:57;101719.13;;;15.27;86.69
71976;BME280;60680;52.182;5.398;2022-10-31T12:54:13;101704.00;;;15.33;86.53
71976;BME280;60680;52.182;5.398;2022-10-31T12:59:42;101704.50;;;15.39;85.64
71976;BME280;60680;52.182;5.398;2022-10-31T13:04:55;101693.47;;;15.48;86.01
71976;BME280;60680;52.182;5.398;2022-10-31T13:07:36;101684.56;;;15.51;86.07
71976;BME280;60680;52.182;5.398;2022-10-31T13:10:13;101673.16;;;15.52;85.28
71976;BME280;60680;52.182;5.398;2022-10-31T13:12:42;101668.81;;;15.51;85.94
71976;BME280;60680;52.182;5.398;2022-10-31T13:15:22;101673.06;;;15.54;85.99
71976;BME280;60680;52.182;5.398;2022-10-31T13:17:57;101679.31;;;15.51;86.29
71976;BME280;60680;52.182;5.398;2022-10-31T13:23:28;101645.34;;;15.49;86.64
71976;BME280;60680;52.182;5.398;2022-10-31T13:26:31;101630.59;;;15.47;86.92
71976;BME280;60680;52.182;5.398;2022-10-31T13:31:57;101623.66;;;15.46;87.36
71976;BME280;60680;52.182;5.398;2022-10-31T13:42:22;101606.91;;;15.48;87.49
71976;BME280;60680;52.182;5.398;2022-10-31T13:44:51;101601.56;;;15.50;87.47
71976;BME280;60680;52.182;5.398;2022-10-31T13:47:24;101600.38;;;15.56;87.62
71976;BME280;60680;52.182;5.398;2022-10-31T13:50:03;101601.88;;;15.60;87.60
71976;BME280;60680;52.182;5.398;2022-10-31T13:52:30;101595.59;;;15.62;87.62
71976;BME280;60680;52.182;5.398;2022-10-31T13:54:57;101592.03;;;15.63;87.21
71976;BME280;60680;52.182;5.398;2022-10-31T14:02:50;101582.88;;;15.70;88.14
71976;BME280;60680;52.182;5.398;2022-10-31T14:05:30;101580.91;;;15.74;87.68
71976;BME280;60680;52.182;5.398;2022-10-31T14:08:01;101569.69;;;15.72;88.08
71976;BME280;60680;52.182;5.398;2022-10-31T14:10:47;101566.97;;;15.74;87.97
71976;BME280;60680;52.182;5.398;2022-10-31T14:13:20;101557.31;;;15.74;88.22
71976;BME280;60680;52.182;5.398;2022-10-31T14:18:36;101549.44;;;15.74;88.27
71976;BME280;60680;52.182;5.398;2022-10-31T14:21:37;101538.84;;;15.76;88.47
71976;BME280;60680;52.182;5.398;2022-10-31T14:26:54;101529.53;;;15.70;88.58
71976;BME280;60680;52.182;5.398;2022-10-31T14:29:26;101526.06;;;15.69;88.76
71976;BME280;60680;52.182;5.398;2022-10-31T14:32:21;101521.59;;;15.72;88.54
71976;BME280;60680;52.182;5.398;2022-10-31T14:34:53;101519.03;;;15.70;88.68
71976;BME280;60680;52.182;5.398;2022-10-31T14:49:12;101496.28;;;15.70;88.24
71976;BME280;60680;52.182;5.398;2022-10-31T14:51:46;101489.34;;;15.69;88.11
71976;BME280;60680;52.182;5.398;2022-10-31T14:54:23;101489.25;;;15.71;87.82
71976;BME280;60680;52.182;5.398;2022-10-31T14:57:05;101490.13;;;15.72;88.03
71976;BME280;60680;52.182;5.398;2022-10-31T14:59:37;101486.72;;;15.69;88.15
71976;BME280;60680;52.182;5.398;2022-10-31T15:02:17;101491.97;;;15.69;88.54
71976;BME280;60680;52.182;5.398;2022-10-31T15:04:47;101486.78;;;15.68;87.85
71976;BME280;60680;52.182;5.398;2022-10-31T15:07:21;101485.88;;;15.69;88.26
71976;BME280;60680;52.182;5.398;2022-10-31T15:10:01;101485.88;;;15.69;88.05
71976;BME280;60680;52.182;5.398;2022-10-31T15:12:31;101475.47;;;15.67;88.17
71976;BME280;60680;52.182;5.398;2022-10-31T15:15:14;101475.47;;;15.67;88.17
71976;BME280;60680;52.182;5.398;2022-10-31T15:17:44;101476.50;;;15.65;88.80
71976;BME280;60680;52.182;5.398;2022-10-31T15:20:27;101461.69;;;15.64;88.42
71976;BME280;60680;52.182;5.398;2022-10-31T15:22:58;101461.81;;;15.62;88.94
71976;BME280;60680;52.182;5.398;2022-10-31T15:25:29;101457.59;;;15.60;88.67
71976;BME280;60680;52.182;5.398;2022-10-31T15:27:57;101456.72;;;15.59;88.63
71976;BME280;60680;52.182;5.398;2022-10-31T15:30:26;101452.44;;;15.58;89.32